Time;durP1;ratioP1;P1;durP2;ratioP2;P2;SDS_P1;SDS_P2;PMS_P1;PMS_P2;Temp;Humidity;BMP_temperature;BMP_pressure;BME280_temperature;BME280_humidity;BME280_pressure;Samples;Min_cycle;Max_cycle;Signal;HPM_P1;HPM_P2
2024/02/16 00:01:06;;;;;;;9.52;4.43;;;;;;;14.29;58.67;99685.91;4137928;28;20121;-70
2024/02/16 00:03:07;;;;;;;9.43;5.03;;;;;;;14.18;59.33;99681.75;4139117;28;20066;-70
2024/02/16 00:05:07;;;;;;;8.48;4.65;;;;;;;14.16;59.29;99691.03;4137909;28;20073;-71
2024/02/16 00:07:08;;;;;;;7.13;4.32;;;;;;;14.20;59.08;99687.81;4138973;28;20038;-71
2024/02/16 00:09:09;;;;;;;8.75;4.90;;;;;;;14.09;59.50;99695.44;4138689;28;20026;-71
2024/02/16 00:11:10;;;;;;;8.75;4.25;;;;;;;14.07;59.91;99697.47;4139063;28;20026;-71
2024/02/16 00:13:11;;;;;;;7.97;4.30;;;;;;;14.13;59.39;99692.22;4139336;28;20029;-70
2024/02/16 00:15:12;;;;;;;6.60;3.88;;;;;;;14.11;59.64;99701.47;4138778;28;20372;-71
2024/02/16 00:17:13;;;;;;;8.55;5.50;;;;;;;13.97;59.78;99692.31;4145172;28;20060;-70
2024/02/16 00:19:13;;;;;;;11.68;6.25;;;;;;;13.73;60.47;99694.94;4138886;28;20441;-70
2024/02/16 00:21:14;;;;;;;9.77;5.47;;;;;;;13.71;60.94;99693.41;4138953;28;20123;-71
2024/02/16 00:23:14;;;;;;;12.73;5.70;;;;;;;13.55;61.51;99694.34;4133282;28;20426;-70
2024/02/16 00:25:15;;;;;;;10.57;5.85;;;;;;;13.50;61.64;99694.00;4139217;28;20122;-70
2024/02/16 00:27:16;;;;;;;9.48;5.10;;;;;;;13.67;61.23;99702.84;4139077;28;20479;-70
2024/02/16 00:29:16;;;;;;;8.25;4.85;;;;;;;13.74;60.77;99693.06;4138806;28;20530;-70
2024/02/16 00:31:17;;;;;;;12.15;4.75;;;;;;;13.82;60.72;99695.72;4143555;28;20026;-71
2024/02/16 00:33:18;;;;;;;7.63;4.15;;;;;;;13.88;60.53;99688.81;4133451;28;20014;-70
2024/02/16 00:35:19;;;;;;;8.80;5.00;;;;;;;13.90;60.53;99686.78;4139190;28;20032;-70
2024/02/16 00:37:19;;;;;;;10.55;5.25;;;;;;;13.88;60.53;99686.13;4138703;28;20519;-70
2024/02/16 00:39:21;;;;;;;13.90;6.50;;;;;;;13.65;61.10;99689.56;4137572;28;20120;-70
2024/02/16 00:41:23;;;;;;;9.05;5.35;;;;;;;13.74;60.83;99682.31;4139215;28;20052;-71
2024/02/16 00:43:23;;;;;;;9.82;5.25;;;;;;;13.67;61.29;99689.41;4139162;28;20529;-69
2024/02/16 00:45:24;;;;;;;7.78;4.70;;;;;;;13.65;61.21;99691.44;4138939;28;20120;-72
2024/02/16 00:47:25;;;;;;;9.18;4.90;;;;;;;13.64;61.53;99687.06;4139503;28;20409;-71
2024/02/16 00:49:26;;;;;;;7.15;4.30;;;;;;;13.78;60.76;99683.66;4138134;28;20026;-72
2024/02/16 00:51:26;;;;;;;6.30;4.00;;;;;;;13.86;60.70;99680.94;4134486;28;20026;-72
2024/02/16 00:53:27;;;;;;;8.20;4.72;;;;;;;13.84;60.72;99674.91;4139183;28;20041;-72
2024/02/16 00:55:27;;;;;;;10.45;5.03;;;;;;;13.90;60.68;99676.06;4137356;28;20442;-70
2024/02/16 00:57:28;;;;;;;10.73;5.53;;;;;;;13.77;61.03;99681.13;4138523;28;20089;-72
2024/02/16 00:59:29;;;;;;;11.05;5.10;;;;;;;13.61;61.60;99673.97;4138573;28;20023;-72
2024/02/16 01:01:29;;;;;;;10.23;5.50;;;;;;;13.69;61.22;99668.59;4138892;28;20034;-70
2024/02/16 01:03:30;;;;;;;12.15;5.47;;;;;;;13.67;61.38;99673.31;4138430;28;20193;-71
2024/02/16 01:05:30;;;;;;;9.10;5.80;;;;;;;13.56;61.72;99672.66;4138381;28;20038;-72
2024/02/16 01:07:32;;;;;;;10.00;4.70;;;;;;;13.61;61.54;99679.34;4134828;28;20021;-73
2024/02/16 01:09:33;;;;;;;9.32;4.88;;;;;;;13.71;61.38;99688.03;4137106;28;20104;-72
2024/02/16 01:11:33;;;;;;;7.20;4.47;;;;;;;13.74;60.95;99682.31;4138194;28;20026;-72
2024/02/16 01:13:34;;;;;;;9.77;5.00;;;;;;;13.73;61.00;99675.28;4138229;28;20030;-71
2024/02/16 01:15:36;;;;;;;10.98;5.45;;;;;;;13.63;61.55;99682.69;4137548;28;20038;-71
2024/02/16 01:17:37;;;;;;;11.95;5.05;;;;;;;13.66;61.13;99685.06;4144082;28;20106;-71
2024/02/16 01:19:37;;;;;;;11.27;4.82;;;;;;;13.69;61.46;99692.78;4141325;28;20042;-71
2024/02/16 01:21:39;;;;;;;9.18;4.63;;;;;;;13.75;61.04;99683.16;4155875;28;20030;-71
2024/02/16 01:23:40;;;;;;;8.10;4.50;;;;;;;13.72;61.28;99690.56;4152373;28;20018;-72
2024/02/16 01:25:40;;;;;;;7.28;3.97;;;;;;;13.68;61.33;99683.84;4149193;28;20458;-72
2024/02/16 01:27:41;;;;;;;8.20;4.18;;;;;;;13.67;61.06;99687.56;4144793;28;20071;-72
2024/02/16 01:29:42;;;;;;;7.10;3.95;;;;;;;13.68;61.18;99688.41;4137741;28;20030;-71
2024/02/16 01:31:43;;;;;;;9.77;4.32;;;;;;;13.62;61.60;99699.81;4149854;28;20022;-71
2024/02/16 01:33:43;;;;;;;8.55;4.13;;;;;;;13.55;61.52;99697.84;4148089;28;20022;-72
2024/02/16 01:35:43;;;;;;;9.00;4.63;;;;;;;13.59;61.36;99694.81;4153483;28;20526;-71
2024/02/16 01:37:44;;;;;;;7.45;3.85;;;;;;;13.66;61.46;99698.47;4149675;28;20053;-71
2024/02/16 01:39:45;;;;;;;8.13;4.72;;;;;;;13.43;61.92;99699.22;4150679;28;20494;-72
2024/02/16 01:41:46;;;;;;;9.73;4.65;;;;;;;13.40;61.93;99691.53;4144474;28;20483;-72
2024/02/16 01:43:46;;;;;;;6.72;3.92;;;;;;;13.46;61.85;99680.06;4150252;28;20041;-72
2024/02/16 01:45:48;;;;;;;8.45;4.32;;;;;;;13.49;61.50;99679.75;4147757;28;20030;-71
2024/02/16 01:47:50;;;;;;;11.40;5.00;;;;;;;13.54;61.66;99682.72;4152525;28;20060;-71
2024/02/16 01:49:51;;;;;;;7.57;4.13;;;;;;;13.53;61.58;99675.69;4162593;28;20508;-71
2024/02/16 01:51:52;;;;;;;7.03;4.22;;;;;;;13.52;61.75;99684.75;4163022;28;20545;-71
2024/02/16 01:53:55;;;;;;;8.30;4.63;;;;;;;13.52;61.88;99684.75;4162930;28;20105;-71
2024/02/16 01:55:56;;;;;;;8.13;4.30;;;;;;;13.59;61.65;99681.41;4162659;28;20052;-72
2024/02/16 01:57:58;;;;;;;9.82;4.80;;;;;;;13.68;61.48;99683.03;4162414;28;20033;-71
2024/02/16 01:59:59;;;;;;;7.75;4.55;;;;;;;13.63;61.42;99686.25;4162464;28;20056;-71
2024/02/16 02:01:59;;;;;;;8.30;4.40;;;;;;;13.63;61.67;99680.88;4163208;28;20045;-71
2024/02/16 02:04:00;;;;;;;9.40;4.43;;;;;;;13.59;61.60;99678.72;4164095;28;20061;-71
2024/02/16 02:06:01;;;;;;;;;;;;;;;13.66;61.91;99685.06;4166223;28;20025;-71
2024/02/16 02:08:11;;;;;;;10.13;4.20;;;;;;;13.53;61.78;99675.69;4165494;28;20293;-71
2024/02/16 02:10:14;;;;;;;7.25;4.18;;;;;;;13.55;61.89;99673.66;4165362;28;20040;-70
2024/02/16 02:12:15;;;;;;;7.13;4.18;;;;;;;13.54;61.70;99672.00;4165483;28;20029;-71
2024/02/16 02:14:15;;;;;;;8.88;4.30;;;;;;;13.50;61.68;99668.00;4165756;28;20374;-71
2024/02/16 02:16:18;;;;;;;8.23;3.95;;;;;;;13.55;62.05;99667.47;4165507;28;20528;-71
2024/02/16 02:18:19;;;;;;;7.85;3.70;;;;;;;13.51;61.99;99666.13;4165255;28;20405;-72
2024/02/16 02:20:19;;;;;;;9.27;4.65;;;;;;;13.34;62.71;99660.78;4165114;28;20029;-72
2024/02/16 02:22:20;;;;;;;10.13;5.35;;;;;;;13.29;62.76;99662.31;4165331;28;20025;-71
2024/02/16 02:24:21;;;;;;;9.75;4.78;;;;;;;13.22;62.73;99657.66;4165951;28;20029;-71
2024/02/16 02:26:21;;;;;;;7.25;4.28;;;;;;;13.34;62.66;99650.06;4165587;28;20025;-71
2024/02/16 02:28:23;;;;;;;12.05;5.95;;;;;;;13.24;62.99;99652.91;4165406;28;20025;-71
2024/02/16 02:30:24;;;;;;;12.20;5.57;;;;;;;13.35;62.54;99658.94;4165134;28;20095;-71
2024/02/16 02:32:24;;;;;;;8.32;4.22;;;;;;;13.41;62.31;99651.06;4164279;28;20033;-71
2024/02/16 02:34:25;;;;;;;7.18;4.15;;;;;;;13.44;62.22;99644.50;4165567;28;20027;-71
2024/02/16 02:36:26;;;;;;;;;;;;;;;13.52;62.36;99654.38;4163981;28;20514;-71
2024/02/16 02:38:27;;;;;;;9.67;4.17;;;;;;;13.39;62.54;99649.56;4163912;28;19963;-72
2024/02/16 02:40:27;;;;;;;9.25;4.50;;;;;;;13.42;62.48;99643.84;4139513;28;20025;-71
2024/02/16 02:42:28;;;;;;;7.93;4.97;;;;;;;13.45;62.14;99640.81;4151817;28;20461;-71
2024/02/16 02:44:31;;;;;;;6.95;3.67;;;;;;;13.44;62.23;99639.13;4165496;28;20029;-73
2024/02/16 02:46:31;;;;;;;7.35;4.45;;;;;;;13.46;62.37;99629.06;4131908;28;20022;-71
2024/02/16 02:48:32;;;;;;;6.95;3.75;;;;;;;13.48;62.24;99637.78;4140127;28;20618;-70
2024/02/16 02:50:32;;;;;;;6.45;3.70;;;;;;;13.50;61.98;99633.09;4155975;28;20029;-71
2024/02/16 02:52:32;;;;;;;8.07;4.63;;;;;;;13.32;62.71;99635.97;4161214;28;20136;-71
2024/02/16 02:54:33;;;;;;;6.93;4.03;;;;;;;13.41;62.56;99639.50;4149544;28;20093;-72
2024/02/16 02:56:34;;;;;;;8.88;4.55;;;;;;;13.48;62.15;99632.41;4140541;28;20842;-71
2024/02/16 02:58:34;;;;;;;9.45;3.90;;;;;;;13.49;62.13;99636.78;4140402;28;20395;-71
2024/02/16 03:00:35;;;;;;;8.70;4.95;;;;;;;13.43;62.35;99637.47;4138581;28;20029;-72
2024/02/16 03:02:37;;;;;;;14.57;5.45;;;;;;;13.47;62.42;99640.63;4138404;28;20046;-71
2024/02/16 03:04:39;;;;;;;8.95;4.65;;;;;;;13.46;62.33;99642.50;4138718;28;20115;-72
2024/02/16 03:06:39;;;;;;;6.97;4.40;;;;;;;13.49;62.37;99642.16;4140211;28;20467;-71
2024/02/16 03:08:39;;;;;;;6.88;4.28;;;;;;;13.47;62.48;99628.06;4138701;28;20080;-71
2024/02/16 03:10:40;;;;;;;7.57;4.55;;;;;;;13.42;62.54;99635.78;4131944;28;20058;-72
2024/02/16 03:12:41;;;;;;;6.80;3.92;;;;;;;13.37;62.33;99633.59;4132351;28;20471;-72
2024/02/16 03:14:42;;;;;;;;;;;;;;;13.38;62.79;99637.13;4132018;28;20030;-70
2024/02/16 03:16:42;;;;;;;9.17;4.57;;;;;;;13.39;62.31;99641.50;4131834;28;19945;-71
2024/02/16 03:18:43;;;;;;;8.77;4.65;;;;;;;13.31;62.59;99636.97;4132125;28;20027;-71
2024/02/16 03:20:45;;;;;;;7.20;4.30;;;;;;;13.34;62.64;99642.00;4132015;28;20174;-72
2024/02/16 03:22:46;;;;;;;8.52;4.18;;;;;;;13.33;62.59;99643.00;4132287;28;20485;-71
2024/02/16 03:24:47;;;;;;;13.30;5.72;;;;;;;13.20;62.94;99638.19;4132044;28;20057;-71
2024/02/16 03:26:48;;;;;;;11.48;5.43;;;;;;;13.27;62.79;99636.47;4132202;28;20053;-71
2024/02/16 03:28:49;;;;;;;11.77;5.07;;;;;;;13.22;63.07;99646.06;4132031;28;20026;-71
2024/02/16 03:30:49;;;;;;;8.55;4.55;;;;;;;13.14;63.12;99644.22;4130371;28;20069;-71
2024/02/16 03:32:52;;;;;;;8.20;4.38;;;;;;;13.12;63.35;99643.56;4132390;28;20073;-71
2024/02/16 03:34:52;;;;;;;8.45;4.00;;;;;;;13.19;63.00;99647.25;4145069;28;20022;-72
2024/02/16 03:36:52;;;;;;;9.18;3.80;;;;;;;13.19;62.89;99643.69;4130579;28;20112;-70
2024/02/16 03:38:53;;;;;;;6.63;3.65;;;;;;;13.15;63.25;99648.59;4131851;28;20023;-72
2024/02/16 03:40:53;;;;;;;8.50;3.80;;;;;;;13.20;63.00;99656.13;4130162;28;20172;-72
2024/02/16 03:42:54;;;;;;;8.20;3.90;;;;;;;13.16;63.13;99658.31;4138135;28;20184;-70
2024/02/16 03:44:54;;;;;;;8.20;4.22;;;;;;;13.12;63.16;99643.56;4131451;28;20034;-71
2024/02/16 03:46:54;;;;;;;9.52;4.63;;;;;;;13.06;63.43;99655.81;4131433;28;20030;-71
2024/02/16 03:48:55;;;;;;;8.40;3.95;;;;;;;13.10;63.34;99654.47;4131701;28;20037;-71
2024/02/16 03:50:55;;;;;;;7.65;4.38;;;;;;;13.06;63.24;99653.16;4131300;28;20081;-71
2024/02/16 03:52:56;;;;;;;7.88;4.68;;;;;;;12.92;63.96;99651.13;4131843;28;20157;-70
2024/02/16 03:54:56;;;;;;;8.52;3.97;;;;;;;12.83;64.09;99652.16;4132222;28;20077;-71
2024/02/16 03:56:58;;;;;;;8.67;4.00;;;;;;;12.96;63.81;99652.50;4131568;28;20037;-71
2024/02/16 03:58:58;;;;;;;7.53;4.30;;;;;;;12.89;63.87;99654.19;4131630;28;20269;-71
2024/02/16 04:00:58;;;;;;;8.20;4.82;;;;;;;12.87;63.93;99654.31;4131693;28;20543;-71
2024/02/16 04:02:59;;;;;;;9.27;5.28;;;;;;;12.82;64.20;99653.16;4131409;28;20495;-70
2024/02/16 04:04:59;;;;;;;8.38;4.60;;;;;;;12.96;63.69;99660.53;4130038;28;20534;-71
2024/02/16 04:07:00;;;;;;;7.65;4.45;;;;;;;13.05;63.72;99653.28;4131472;28;20081;-71
2024/02/16 04:09:00;;;;;;;7.10;3.90;;;;;;;13.03;63.58;99653.47;4131316;28;20030;-71
2024/02/16 04:11:01;;;;;;;7.40;3.78;;;;;;;13.07;63.48;99654.81;4130325;28;20079;-71
2024/02/16 04:13:02;;;;;;;7.95;4.13;;;;;;;13.17;63.10;99660.00;4131991;28;20066;-71
2024/02/16 04:15:03;;;;;;;6.43;3.33;;;;;;;13.22;63.12;99660.31;4131347;28;20386;-71
2024/02/16 04:17:04;;;;;;;9.32;4.07;;;;;;;13.11;63.20;99658.00;4131976;28;20026;-72
2024/02/16 04:19:04;;;;;;;9.98;4.70;;;;;;;13.11;63.54;99663.38;4131900;28;20530;-71
2024/02/16 04:21:05;;;;;;;7.95;4.60;;;;;;;13.09;63.36;99658.16;4133061;28;20110;-70
2024/02/16 04:23:05;;;;;;;9.30;4.80;;;;;;;13.17;63.05;99654.63;4133408;28;20022;-71
2024/02/16 04:25:05;;;;;;;8.95;3.83;;;;;;;13.26;62.88;99658.13;4133040;28;20034;-71
2024/02/16 04:27:06;;;;;;;8.85;4.10;;;;;;;13.24;63.10;99660.16;4134600;28;20034;-71
2024/02/16 04:29:07;;;;;;;8.80;5.05;;;;;;;13.25;63.01;99659.16;4151384;28;20025;-71
2024/02/16 04:31:07;;;;;;;9.40;4.40;;;;;;;13.03;63.51;99660.69;4158169;28;20088;-72
2024/02/16 04:33:08;;;;;;;8.68;4.80;;;;;;;13.02;63.74;99665.22;4142730;28;20502;-70
2024/02/16 04:35:11;;;;;;;6.75;3.55;;;;;;;13.04;63.54;99659.66;4141102;28;20391;-69
2024/02/16 04:37:13;;;;;;;6.97;4.30;;;;;;;13.12;63.36;99662.34;4140898;28;20033;-71
2024/02/16 04:39:14;;;;;;;7.70;4.13;;;;;;;13.20;63.07;99664.16;4141322;28;20025;-71
2024/02/16 04:41:15;;;;;;;8.15;3.78;;;;;;;13.21;62.98;99672.06;4144758;28;20046;-71
2024/02/16 04:43:16;;;;;;;7.45;4.25;;;;;;;13.10;63.72;99677.78;4131839;28;20709;-72
2024/02/16 04:45:17;;;;;;;10.07;4.63;;;;;;;12.93;64.21;99677.81;4140817;28;20033;-72
2024/02/16 04:47:17;;;;;;;8.65;4.32;;;;;;;13.01;64.03;99676.94;4154490;28;20060;-71
2024/02/16 04:49:18;;;;;;;6.72;3.85;;;;;;;13.06;63.55;99679.13;4163651;28;20193;-70
2024/02/16 04:51:18;;;;;;;8.93;4.68;;;;;;;12.94;64.17;99686.69;4166134;28;20026;-71
2024/02/16 04:53:19;;;;;;;8.32;4.60;;;;;;;12.82;64.53;99682.66;4156641;28;20483;-71
2024/02/16 04:55:19;;;;;;;8.95;4.53;;;;;;;12.81;64.41;99679.16;4145933;28;20049;-71
2024/02/16 04:57:20;;;;;;;8.10;5.13;;;;;;;12.70;64.88;99680.34;4138344;28;20034;-71
2024/02/16 04:59:21;;;;;;;;;;;;;;;12.66;65.48;99678.16;4131400;28;20575;-70
2024/02/16 05:01:21;;;;;;;11.20;4.83;;;;;;;12.55;65.22;99676.63;4131108;28;19916;-72
2024/02/16 05:03:22;;;;;;;9.40;5.03;;;;;;;12.57;65.24;99683.50;4145079;28;20065;-72
2024/02/16 05:05:24;;;;;;;8.07;4.50;;;;;;;12.59;65.20;99678.00;4146215;28;20030;-71
2024/02/16 05:07:24;;;;;;;8.32;3.88;;;;;;;12.71;64.93;99683.84;4147478;28;20045;-71
2024/02/16 05:09:26;;;;;;;9.57;3.60;;;;;;;12.80;64.51;99685.53;4144204;28;20049;-71
2024/02/16 05:11:29;;;;;;;7.57;3.42;;;;;;;12.90;64.19;99690.69;4137800;28;20035;-71
2024/02/16 05:13:30;;;;;;;10.48;3.60;;;;;;;12.95;63.88;99693.72;4149231;28;20018;-71
2024/02/16 05:15:31;;;;;;;6.65;3.20;;;;;;;12.97;64.04;99701.59;4148634;28;20049;-71
2024/02/16 05:17:31;;;;;;;6.15;3.40;;;;;;;12.88;64.14;99703.47;4146484;28;20104;-72
2024/02/16 05:19:34;;;;;;;7.53;4.22;;;;;;;12.83;64.41;99709.34;4146235;28;20034;-71
2024/02/16 05:21:35;;;;;;;6.53;3.72;;;;;;;12.82;64.44;99704.13;4146292;28;20026;-72
2024/02/16 05:23:35;;;;;;;6.65;4.40;;;;;;;12.85;64.30;99704.63;4146419;28;20033;-72
2024/02/16 05:25:35;;;;;;;6.57;4.07;;;;;;;12.82;64.45;99707.66;4146325;28;20116;-71
2024/02/16 05:27:37;;;;;;;8.45;3.88;;;;;;;12.80;64.41;99709.66;4146148;28;20061;-71
2024/02/16 05:29:38;;;;;;;9.50;4.05;;;;;;;12.76;64.41;99708.31;4145949;28;20629;-71
2024/02/16 05:31:38;;;;;;;10.88;4.05;;;;;;;12.80;64.28;99712.34;4146475;28;20024;-71
2024/02/16 05:33:39;;;;;;;5.90;3.42;;;;;;;12.80;64.10;99712.34;4146464;28;20026;-72
2024/02/16 05:35:40;;;;;;;8.15;4.15;;;;;;;12.80;64.28;99712.34;4146016;28;20046;-72
2024/02/16 05:37:43;;;;;;;;;;;;;;;12.68;64.46;99708.31;4148004;28;20037;-71
2024/02/16 05:39:54;;;;;;;12.45;3.85;;;;;;;12.47;64.89;99701.59;4147347;28;19941;-73
2024/02/16 05:41:54;;;;;;;8.15;4.70;;;;;;;12.40;65.22;99700.56;4149619;28;20050;-71
2024/02/16 05:43:54;;;;;;;7.90;3.85;;;;;;;12.49;65.04;99707.63;4149453;28;20068;-71
2024/02/16 05:45:55;;;;;;;6.70;3.67;;;;;;;12.50;65.10;99713.84;4149390;28;20075;-71
2024/02/16 05:47:55;;;;;;;9.07;3.53;;;;;;;12.47;64.96;99713.16;4149080;28;20583;-71
2024/02/16 05:49:58;;;;;;;5.53;3.40;;;;;;;12.49;65.07;99712.97;4148937;28;20022;-71
2024/02/16 05:52:17;;;;;;;6.72;3.00;;;;;;;12.54;65.01;99713.34;4149170;28;20037;-70
2024/02/16 05:54:17;;;;;;;6.65;3.28;;;;;;;12.60;64.72;99718.03;4148985;28;20037;-71
2024/02/16 05:56:18;;;;;;;8.30;3.88;;;;;;;12.54;65.05;99724.06;4156675;28;20029;-70
2024/02/16 05:58:18;;;;;;;5.03;3.08;;;;;;;12.52;64.79;99714.50;4149470;28;20470;-71
2024/02/16 06:00:21;;;;;;;6.15;3.85;;;;;;;12.46;65.20;99722.19;4149024;28;20029;-71
2024/02/16 06:02:25;;;;;;;5.85;3.00;;;;;;;12.50;64.93;99725.38;4147520;28;20049;-71
2024/02/16 06:04:26;;;;;;;9.85;3.45;;;;;;;12.55;64.58;99719.53;4149075;28;20033;-70
2024/02/16 06:06:26;;;;;;;7.38;3.42;;;;;;;12.56;64.77;99724.75;4148743;28;20021;-71
2024/02/16 06:08:27;;;;;;;9.15;4.10;;;;;;;12.53;64.87;99726.91;4149095;28;20050;-71
2024/02/16 06:10:27;;;;;;;8.88;3.95;;;;;;;12.56;64.62;99726.56;4148426;28;20072;-70
2024/02/16 06:12:27;;;;;;;11.02;3.50;;;;;;;12.54;64.83;99729.44;4148999;28;20026;-72
2024/02/16 06:14:28;;;;;;;10.18;4.50;;;;;;;12.50;64.88;99740.66;4148028;28;20030;-71
2024/02/16 06:16:28;;;;;;;7.70;3.58;;;;;;;12.53;64.86;99738.47;4148912;28;20053;-71
2024/02/16 06:18:29;;;;;;;8.40;3.90;;;;;;;12.54;64.87;99734.78;4148872;28;20035;-70
2024/02/16 06:20:29;;;;;;;12.32;4.90;;;;;;;12.29;65.46;99734.72;4146877;28;20034;-71
2024/02/16 06:22:31;;;;;;;8.75;3.80;;;;;;;12.37;65.43;99733.09;4148493;28;20033;-71
2024/02/16 06:24:32;;;;;;;8.63;4.55;;;;;;;12.42;65.19;99733.41;4148036;28;20037;-71
2024/02/16 06:26:32;;;;;;;8.38;4.68;;;;;;;12.43;65.29;99732.41;4148915;28;20033;-71
2024/02/16 06:28:32;;;;;;;12.10;4.10;;;;;;;12.40;65.27;99730.06;4153636;28;20026;-71
2024/02/16 06:30:33;;;;;;;7.05;4.63;;;;;;;12.36;65.43;99740.28;4152917;28;20021;-71
2024/02/16 06:32:33;;;;;;;9.65;4.90;;;;;;;12.39;65.33;99739.09;4148969;28;20033;-70
2024/02/16 06:34:34;;;;;;;9.95;4.55;;;;;;;12.44;65.30;99739.47;4149503;28;20021;-71
2024/02/16 06:36:34;;;;;;;6.65;3.95;;;;;;;12.51;65.04;99735.13;4151793;28;20029;-71
2024/02/16 06:38:34;;;;;;;8.77;4.45;;;;;;;12.42;65.29;99736.09;4149936;28;20053;-71
2024/02/16 06:40:35;;;;;;;7.53;3.80;;;;;;;12.50;65.26;99737.97;4152543;28;20049;-71
2024/02/16 06:42:36;;;;;;;9.35;4.03;;;;;;;12.58;64.81;99727.25;4153471;28;20079;-71
2024/02/16 06:44:36;;;;;;;7.20;3.33;;;;;;;12.58;64.84;99736.13;4154575;28;20041;-72
2024/02/16 06:46:36;;;;;;;7.32;4.05;;;;;;;12.60;64.89;99750.22;4155129;28;20039;-71
2024/02/16 06:48:37;;;;;;;8.75;4.28;;;;;;;12.60;64.70;99755.56;4156606;28;20029;-72
2024/02/16 06:50:37;;;;;;;13.02;4.60;;;;;;;12.50;65.15;99752.19;4159474;28;20076;-72
2024/02/16 06:52:38;;;;;;;10.23;5.10;;;;;;;12.43;65.39;99754.69;4158523;28;20045;-71
2024/02/16 06:54:39;;;;;;;10.32;5.45;;;;;;;12.31;65.84;99756.84;4158895;28;20301;-71
2024/02/16 06:56:39;;;;;;;10.63;4.32;;;;;;;12.35;65.68;99754.69;4158089;28;20029;-72
2024/02/16 06:58:39;;;;;;;13.30;5.07;;;;;;;12.26;65.88;99758.34;4156028;28;20030;-72
2024/02/16 07:00:42;;;;;;;9.00;4.90;;;;;;;12.37;65.73;99768.75;4156788;28;20455;-72
2024/02/16 07:02:42;;;;;;;9.05;4.90;;;;;;;12.21;65.85;99769.53;4153708;28;20069;-70
2024/02/16 07:04:43;;;;;;;7.40;4.20;;;;;;;12.26;65.81;99777.94;4154428;28;20045;-72
2024/02/16 07:06:43;;;;;;;11.80;4.57;;;;;;;12.28;65.68;99773.25;4148315;28;20061;-71
2024/02/16 07:08:44;;;;;;;11.50;5.05;;;;;;;12.23;65.83;99780.94;4147823;28;20030;-71
2024/02/16 07:10:44;;;;;;;12.43;4.85;;;;;;;12.20;65.79;99781.25;4148527;28;20057;-72
2024/02/16 07:12:45;;;;;;;8.93;5.40;;;;;;;12.13;66.41;99785.59;4148373;28;20113;-71
2024/02/16 07:14:46;;;;;;;10.77;6.05;;;;;;;12.21;65.98;99782.13;4148050;28;20033;-71
2024/02/16 07:16:47;;;;;;;10.38;5.47;;;;;;;12.23;66.12;99785.47;4148809;28;20061;-71
2024/02/16 07:18:47;;;;;;;10.35;5.82;;;;;;;12.33;65.78;99784.34;4148683;28;20494;-70
2024/02/16 07:20:48;;;;;;;8.77;5.57;;;;;;;12.32;65.69;99782.66;4149193;28;20121;-70
2024/02/16 07:22:51;;;;;;;11.73;5.43;;;;;;;12.22;66.01;99789.16;4148338;28;20030;-71
2024/02/16 07:24:51;;;;;;;10.82;6.30;;;;;;;12.24;66.30;99792.50;4148292;28;20037;-72
2024/02/16 07:26:53;;;;;;;10.57;6.13;;;;;;;12.21;66.31;99788.31;4148172;28;20378;-71
2024/02/16 07:28:53;;;;;;;14.35;5.93;;;;;;;12.07;66.78;99792.44;4148530;28;20133;-71
2024/02/16 07:30:54;;;;;;;10.60;6.03;;;;;;;12.02;67.03;99789.41;4147846;28;20101;-70
2024/02/16 07:32:55;;;;;;;8.23;4.63;;;;;;;12.20;66.52;99796.50;4147827;28;20034;-71
2024/02/16 07:34:55;;;;;;;10.57;5.82;;;;;;;12.06;66.83;99788.06;4148231;28;20425;-70
2024/02/16 07:36:56;;;;;;;9.15;5.63;;;;;;;12.11;66.69;99798.31;4146874;28;20032;-70
2024/02/16 07:38:57;;;;;;;;;;;;;;;12.04;66.92;99797.28;4147135;28;20021;-70
2024/02/16 07:40:57;;;;;;;11.77;5.77;;;;;;;12.02;66.87;99806.31;4147830;28;19939;-71
2024/02/16 07:42:57;;;;;;;10.23;5.85;;;;;;;12.02;66.88;99806.31;4147581;28;20017;-71
2024/02/16 07:44:58;;;;;;;10.00;5.28;;;;;;;11.99;67.09;99808.47;4147589;28;20049;-71
2024/02/16 07:46:58;;;;;;;10.87;5.77;;;;;;;11.96;67.09;99814.09;4147714;28;20026;-70
2024/02/16 07:48:58;;;;;;;12.98;5.93;;;;;;;11.99;67.00;99816.50;4147408;28;20649;-71
2024/02/16 07:51:02;;;;;;;11.68;5.82;;;;;;;11.97;67.02;99819.34;4147894;28;20034;-71
2024/02/16 07:53:02;;;;;;;8.30;5.32;;;;;;;11.95;67.04;99821.31;4147309;28;20036;-70
2024/02/16 07:55:03;;;;;;;9.20;6.05;;;;;;;12.02;66.90;99819.72;4147652;28;20030;-70
2024/02/16 07:57:04;;;;;;;8.88;4.95;;;;;;;12.26;66.14;99818.16;4147589;28;20036;-71
2024/02/16 07:59:04;;;;;;;9.75;5.10;;;;;;;12.25;66.37;99829.88;4147469;28;20091;-71
2024/02/16 08:01:06;;;;;;;8.95;5.55;;;;;;;12.26;66.28;99823.50;4152927;28;20501;-71
2024/02/16 08:03:06;;;;;;;10.30;5.85;;;;;;;12.29;66.51;99823.16;4155499;28;20057;-70
2024/02/16 08:05:07;;;;;;;8.63;5.45;;;;;;;12.36;66.32;99827.91;4153389;28;20025;-71
2024/02/16 08:07:09;;;;;;;9.65;5.40;;;;;;;12.28;66.59;99818.81;4160865;28;20096;-71
2024/02/16 08:09:09;;;;;;;10.23;5.35;;;;;;;12.37;66.41;99829.59;4161422;28;20021;-71
2024/02/16 08:11:10;;;;;;;8.82;5.20;;;;;;;12.44;65.96;99826.06;4161939;28;20060;-71
2024/02/16 08:13:11;;;;;;;8.13;4.90;;;;;;;12.37;66.13;99829.59;4160365;28;20030;-70
2024/02/16 08:15:11;;;;;;;8.00;4.10;;;;;;;12.32;66.45;99833.59;4159362;28;20109;-71
2024/02/16 08:17:12;;;;;;;7.65;4.25;;;;;;;12.35;66.34;99836.94;4153058;28;20071;-71
2024/02/16 08:19:13;;;;;;;9.30;4.97;;;;;;;12.45;65.87;99826.94;4149660;28;20026;-71
2024/02/16 08:21:14;;;;;;;7.75;4.38;;;;;;;12.45;65.64;99832.28;4149685;28;20105;-71
2024/02/16 08:23:14;;;;;;;7.65;4.95;;;;;;;12.44;65.53;99826.06;4149534;28;20026;-71
2024/02/16 08:25:14;;;;;;;7.20;4.45;;;;;;;12.64;65.19;99821.28;4150711;28;20635;-70
2024/02/16 08:27:15;;;;;;;7.55;4.70;;;;;;;12.71;64.97;99826.00;4161678;28;20109;-70
2024/02/16 08:29:16;;;;;;;7.07;4.53;;;;;;;12.74;64.74;99825.69;4146495;28;20579;-71
2024/02/16 08:31:18;;;;;;;8.50;4.30;;;;;;;12.78;64.67;99827.00;4146967;28;20513;-72
2024/02/16 08:33:18;;;;;;;8.82;5.47;;;;;;;12.83;64.47;99824.69;4147745;28;20113;-70
2024/02/16 08:35:19;;;;;;;8.68;5.50;;;;;;;12.98;64.24;99816.81;4147157;28;20037;-70
2024/02/16 08:37:20;;;;;;;8.18;4.22;;;;;;;12.98;64.41;99824.03;4147387;28;20033;-69
2024/02/16 08:39:20;;;;;;;7.68;4.40;;;;;;;13.00;64.14;99819.34;4146685;28;20053;-71
2024/02/16 08:41:21;;;;;;;7.45;5.00;;;;;;;13.06;63.91;99824.88;4145766;28;20042;-72
2024/02/16 08:43:22;;;;;;;7.53;4.43;;;;;;;13.08;63.77;99822.84;4146354;28;20125;-70
2024/02/16 08:45:22;;;;;;;8.43;4.60;;;;;;;13.07;63.52;99817.66;4147021;28;20053;-70
2024/02/16 08:47:23;;;;;;;10.80;5.32;;;;;;;13.06;63.61;99818.66;4146666;28;20088;-71
2024/02/16 08:49:23;;;;;;;13.13;5.78;;;;;;;12.90;63.78;99819.47;4146614;28;20025;-71
2024/02/16 08:51:24;;;;;;;8.88;4.80;;;;;;;12.85;64.04;99827.19;4146497;28;20033;-71
2024/02/16 08:53:24;;;;;;;11.13;5.18;;;;;;;12.88;63.66;99827.69;4145358;28;20030;-71
2024/02/16 08:55:26;;;;;;;9.73;5.05;;;;;;;12.95;63.17;99817.97;4145265;28;20060;-70
2024/02/16 08:57:27;;;;;;;9.43;4.88;;;;;;;12.99;63.51;99818.47;4145414;28;20037;-71
2024/02/16 08:59:30;;;;;;;;;;;;;;;13.02;62.90;99820.03;4148854;28;20029;-70
2024/02/16 09:01:35;;;;;;;11.60;4.30;;;;;;;13.12;62.79;99820.69;4153100;28;19909;-71
2024/02/16 09:03:38;;;;;;;7.47;4.50;;;;;;;13.23;62.73;99820.34;4155843;28;20064;-71
2024/02/16 09:05:38;;;;;;;9.02;4.13;;;;;;;13.31;62.45;99821.38;4144179;28;20113;-72
2024/02/16 09:07:39;;;;;;;10.95;4.25;;;;;;;13.46;62.36;99829.63;4145824;28;20168;-70
2024/02/16 09:09:39;;;;;;;8.98;4.68;;;;;;;13.66;61.92;99835.47;4146256;28;20123;-71
2024/02/16 09:11:40;;;;;;;9.50;4.10;;;;;;;13.72;61.77;99829.41;4144491;28;20022;-72
2024/02/16 09:13:41;;;;;;;8.32;4.13;;;;;;;13.82;61.55;99827.38;4145846;28;20524;-72
2024/02/16 09:15:41;;;;;;;10.18;5.03;;;;;;;13.91;61.20;99827.34;4145559;28;20060;-71
2024/02/16 09:17:41;;;;;;;12.38;5.38;;;;;;;14.09;61.21;99827.97;4145626;28;20038;-71
2024/02/16 09:19:43;;;;;;;6.65;4.05;;;;;;;14.25;60.59;99823.56;4151410;28;20213;-70
2024/02/16 09:21:43;;;;;;;10.05;4.88;;;;;;;14.31;60.86;99830.91;4162589;28;20104;-72
2024/02/16 09:23:44;;;;;;;10.02;4.32;;;;;;;14.43;60.51;99829.53;4161069;28;20014;-71
2024/02/16 09:25:46;;;;;;;9.60;4.72;;;;;;;14.46;60.59;99839.09;4161751;28;20030;-69
2024/02/16 09:27:46;;;;;;;7.80;4.38;;;;;;;14.49;60.40;99844.13;4160918;28;20053;-69
2024/02/16 09:29:48;;;;;;;15.00;4.30;;;;;;;14.46;60.05;99836.41;4162050;28;20037;-70